sensor_id;sensor_type;location;lat;lon;timestamp;P1;durP1;ratioP1;P2;durP2;ratioP2
71753;SDS011;59593;51.716;7.016;2023-11-18T00:00:49;27.43;;;19.00;;
71753;SDS011;59593;51.716;7.016;2023-11-18T00:03:15;32.80;;;20.50;;
71753;SDS011;59593;51.716;7.016;2023-11-18T00:05:41;30.80;;;19.83;;
71753;SDS011;59593;51.716;7.016;2023-11-18T00:08:07;28.13;;;20.30;;
71753;SDS011;59593;51.716;7.016;2023-11-18T00:10:33;26.93;;;19.77;;
71753;SDS011;59593;51.716;7.016;2023-11-18T00:12:58;36.07;;;20.67;;
71753;SDS011;59593;51.716;7.016;2023-11-18T00:15:26;28.57;;;19.67;;
71753;SDS011;59593;51.716;7.016;2023-11-18T00:17:52;27.00;;;19.07;;
71753;SDS011;59593;51.716;7.016;2023-11-18T00:20:17;35.10;;;20.37;;
71753;SDS011;59593;51.716;7.016;2023-11-18T00:22:45;27.20;;;19.17;;
71753;SDS011;59593;51.716;7.016;2023-11-18T00:25:11;28.00;;;19.20;;
71753;SDS011;59593;51.716;7.016;2023-11-18T00:27:39;30.67;;;20.20;;
71753;SDS011;59593;51.716;7.016;2023-11-18T00:30:05;30.77;;;20.20;;
71753;SDS011;59593;51.716;7.016;2023-11-18T00:32:33;29.30;;;19.87;;
71753;SDS011;59593;51.716;7.016;2023-11-18T00:35:00;32.83;;;20.33;;
71753;SDS011;59593;51.716;7.016;2023-11-18T00:37:26;30.20;;;19.93;;
71753;SDS011;59593;51.716;7.016;2023-11-18T00:39:52;30.23;;;19.57;;
71753;SDS011;59593;51.716;7.016;2023-11-18T00:42:18;35.40;;;20.53;;
71753;SDS011;59593;51.716;7.016;2023-11-18T00:44:43;55.10;;;22.50;;
71753;SDS011;59593;51.716;7.016;2023-11-18T00:47:09;70.40;;;26.50;;
71753;SDS011;59593;51.716;7.016;2023-11-18T00:49:34;44.20;;;24.53;;
71753;SDS011;59593;51.716;7.016;2023-11-18T00:52:01;247.43;;;30.93;;
71753;SDS011;59593;51.716;7.016;2023-11-18T00:54:26;155.20;;;26.63;;
71753;SDS011;59593;51.716;7.016;2023-11-18T00:56:52;100.53;;;25.17;;
71753;SDS011;59593;51.716;7.016;2023-11-18T00:59:18;50.93;;;23.63;;
71753;SDS011;59593;51.716;7.016;2023-11-18T01:01:43;263.93;;;29.97;;
71753;SDS011;59593;51.716;7.016;2023-11-18T01:04:09;157.17;;;26.60;;
71753;SDS011;59593;51.716;7.016;2023-11-18T01:06:34;146.67;;;25.10;;
71753;SDS011;59593;51.716;7.016;2023-11-18T01:09:00;128.17;;;25.67;;
71753;SDS011;59593;51.716;7.016;2023-11-18T01:11:26;347.73;;;32.63;;
71753;SDS011;59593;51.716;7.016;2023-11-18T01:13:51;155.33;;;26.40;;
71753;SDS011;59593;51.716;7.016;2023-11-18T01:16:19;39.13;;;22.87;;
71753;SDS011;59593;51.716;7.016;2023-11-18T01:18:45;57.40;;;21.90;;
71753;SDS011;59593;51.716;7.016;2023-11-18T01:21:10;65.20;;;24.70;;
71753;SDS011;59593;51.716;7.016;2023-11-18T01:23:37;37.23;;;22.83;;
71753;SDS011;59593;51.716;7.016;2023-11-18T01:26:03;98.87;;;23.13;;
71753;SDS011;59593;51.716;7.016;2023-11-18T01:28:36;55.50;;;23.43;;
71753;SDS011;59593;51.716;7.016;2023-11-18T01:31:04;55.07;;;22.30;;
71753;SDS011;59593;51.716;7.016;2023-11-18T01:33:30;36.10;;;21.43;;
71753;SDS011;59593;51.716;7.016;2023-11-18T01:35:57;39.30;;;22.33;;
71753;SDS011;59593;51.716;7.016;2023-11-18T01:38:23;56.60;;;24.93;;
71753;SDS011;59593;51.716;7.016;2023-11-18T01:40:51;45.27;;;22.30;;
71753;SDS011;59593;51.716;7.016;2023-11-18T01:43:18;71.20;;;22.43;;
71753;SDS011;59593;51.716;7.016;2023-11-18T01:45:44;30.93;;;19.87;;
71753;SDS011;59593;51.716;7.016;2023-11-18T01:48:11;41.60;;;21.00;;
71753;SDS011;59593;51.716;7.016;2023-11-18T01:50:38;102.73;;;21.83;;
71753;SDS011;59593;51.716;7.016;2023-11-18T01:53:05;78.70;;;21.63;;
71753;SDS011;59593;51.716;7.016;2023-11-18T01:55:32;56.50;;;20.13;;
71753;SDS011;59593;51.716;7.016;2023-11-18T01:57:59;49.93;;;19.93;;
71753;SDS011;59593;51.716;7.016;2023-11-18T02:00:32;48.97;;;20.30;;
71753;SDS011;59593;51.716;7.016;2023-11-18T02:03:00;45.67;;;20.07;;
71753;SDS011;59593;51.716;7.016;2023-11-18T02:05:25;31.50;;;18.97;;
71753;SDS011;59593;51.716;7.016;2023-11-18T02:07:51;56.57;;;19.67;;
71753;SDS011;59593;51.716;7.016;2023-11-18T02:10:17;32.70;;;19.20;;
71753;SDS011;59593;51.716;7.016;2023-11-18T02:12:44;32.67;;;19.17;;
71753;SDS011;59593;51.716;7.016;2023-11-18T02:15:18;30.00;;;18.60;;
71753;SDS011;59593;51.716;7.016;2023-11-18T02:17:45;41.23;;;18.77;;
71753;SDS011;59593;51.716;7.016;2023-11-18T02:20:14;28.70;;;19.80;;
71753;SDS011;59593;51.716;7.016;2023-11-18T02:22:42;31.47;;;20.90;;
71753;SDS011;59593;51.716;7.016;2023-11-18T02:25:11;30.43;;;21.20;;
71753;SDS011;59593;51.716;7.016;2023-11-18T02:27:41;26.87;;;19.57;;
71753;SDS011;59593;51.716;7.016;2023-11-18T02:30:08;27.50;;;19.70;;
71753;SDS011;59593;51.716;7.016;2023-11-18T02:32:45;29.90;;;18.57;;
71753;SDS011;59593;51.716;7.016;2023-11-18T02:35:24;24.47;;;17.93;;
71753;SDS011;59593;51.716;7.016;2023-11-18T02:37:55;25.43;;;18.10;;
71753;SDS011;59593;51.716;7.016;2023-11-18T02:40:26;29.10;;;18.73;;
71753;SDS011;59593;51.716;7.016;2023-11-18T02:43:05;40.33;;;19.17;;
71753;SDS011;59593;51.716;7.016;2023-11-18T02:45:32;29.40;;;19.70;;
71753;SDS011;59593;51.716;7.016;2023-11-18T02:48:01;26.07;;;18.07;;
71753;SDS011;59593;51.716;7.016;2023-11-18T02:50:27;26.33;;;18.47;;
71753;SDS011;59593;51.716;7.016;2023-11-18T02:52:53;27.30;;;19.13;;
71753;SDS011;59593;51.716;7.016;2023-11-18T02:55:19;26.60;;;18.23;;
71753;SDS011;59593;51.716;7.016;2023-11-18T02:57:47;25.97;;;17.43;;
71753;SDS011;59593;51.716;7.016;2023-11-18T03:00:12;27.10;;;18.17;;
71753;SDS011;59593;51.716;7.016;2023-11-18T03:02:50;29.43;;;18.30;;
71753;SDS011;59593;51.716;7.016;2023-11-18T03:05:19;31.10;;;19.13;;
71753;SDS011;59593;51.716;7.016;2023-11-18T03:07:46;28.37;;;18.87;;
71753;SDS011;59593;51.716;7.016;2023-11-18T03:10:17;26.60;;;17.60;;
71753;SDS011;59593;51.716;7.016;2023-11-18T03:12:47;23.73;;;17.23;;
71753;SDS011;59593;51.716;7.016;2023-11-18T03:15:17;27.20;;;18.17;;
71753;SDS011;59593;51.716;7.016;2023-11-18T03:17:47;25.13;;;16.80;;
71753;SDS011;59593;51.716;7.016;2023-11-18T03:20:18;25.83;;;17.50;;
71753;SDS011;59593;51.716;7.016;2023-11-18T03:22:45;26.90;;;17.93;;
71753;SDS011;59593;51.716;7.016;2023-11-18T03:25:11;26.03;;;17.53;;
71753;SDS011;59593;51.716;7.016;2023-11-18T03:27:37;25.47;;;17.53;;
71753;SDS011;59593;51.716;7.016;2023-11-18T03:30:05;24.63;;;16.80;;
71753;SDS011;59593;51.716;7.016;2023-11-18T03:32:33;26.00;;;17.17;;
71753;SDS011;59593;51.716;7.016;2023-11-18T03:35:03;27.27;;;16.93;;
71753;SDS011;59593;51.716;7.016;2023-11-18T03:37:32;24.80;;;16.83;;
71753;SDS011;59593;51.716;7.016;2023-11-18T03:39:57;23.33;;;16.07;;
71753;SDS011;59593;51.716;7.016;2023-11-18T03:42:23;23.03;;;16.00;;
71753;SDS011;59593;51.716;7.016;2023-11-18T03:44:49;24.20;;;16.60;;
71753;SDS011;59593;51.716;7.016;2023-11-18T03:47:14;54.50;;;29.30;;
71753;SDS011;59593;51.716;7.016;2023-11-18T03:49:43;54.83;;;28.87;;
71753;SDS011;59593;51.716;7.016;2023-11-18T03:52:08;85.23;;;39.60;;
71753;SDS011;59593;51.716;7.016;2023-11-18T03:54:34;143.47;;;53.90;;
71753;SDS011;59593;51.716;7.016;2023-11-18T03:57:00;157.50;;;58.33;;
71753;SDS011;59593;51.716;7.016;2023-11-18T03:59:25;163.03;;;57.27;;
71753;SDS011;59593;51.716;7.016;2023-11-18T04:01:51;126.73;;;48.33;;
71753;SDS011;59593;51.716;7.016;2023-11-18T04:04:17;67.67;;;32.03;;
71753;SDS011;59593;51.716;7.016;2023-11-18T04:06:43;45.80;;;24.43;;
71753;SDS011;59593;51.716;7.016;2023-11-18T04:09:09;51.30;;;25.93;;
71753;SDS011;59593;51.716;7.016;2023-11-18T04:11:35;49.20;;;25.90;;
71753;SDS011;59593;51.716;7.016;2023-11-18T04:14:01;34.63;;;19.10;;
71753;SDS011;59593;51.716;7.016;2023-11-18T04:16:28;30.60;;;20.00;;
71753;SDS011;59593;51.716;7.016;2023-11-18T04:18:54;75.60;;;33.63;;
71753;SDS011;59593;51.716;7.016;2023-11-18T04:21:20;61.73;;;29.33;;
71753;SDS011;59593;51.716;7.016;2023-11-18T04:23:46;44.47;;;22.43;;
71753;SDS011;59593;51.716;7.016;2023-11-18T04:26:12;35.97;;;20.10;;
71753;SDS011;59593;51.716;7.016;2023-11-18T04:28:38;32.30;;;19.03;;
71753;SDS011;59593;51.716;7.016;2023-11-18T04:31:04;27.53;;;17.40;;
71753;SDS011;59593;51.716;7.016;2023-11-18T04:33:30;30.50;;;17.77;;
71753;SDS011;59593;51.716;7.016;2023-11-18T04:35:56;27.50;;;17.37;;
71753;SDS011;59593;51.716;7.016;2023-11-18T04:38:25;27.03;;;17.70;;
71753;SDS011;59593;51.716;7.016;2023-11-18T04:40:51;30.80;;;18.10;;
71753;SDS011;59593;51.716;7.016;2023-11-18T04:43:18;27.07;;;16.77;;
71753;SDS011;59593;51.716;7.016;2023-11-18T04:45:45;29.03;;;17.93;;
71753;SDS011;59593;51.716;7.016;2023-11-18T04:48:11;26.33;;;16.77;;
71753;SDS011;59593;51.716;7.016;2023-11-18T04:50:38;27.23;;;17.03;;
71753;SDS011;59593;51.716;7.016;2023-11-18T04:53:04;27.03;;;17.40;;
71753;SDS011;59593;51.716;7.016;2023-11-18T04:55:33;26.70;;;17.30;;
71753;SDS011;59593;51.716;7.016;2023-11-18T04:58:01;27.23;;;17.67;;
71753;SDS011;59593;51.716;7.016;2023-11-18T05:00:27;25.27;;;16.30;;
71753;SDS011;59593;51.716;7.016;2023-11-18T05:02:53;25.53;;;16.87;;
71753;SDS011;59593;51.716;7.016;2023-11-18T05:05:19;25.07;;;16.60;;
71753;SDS011;59593;51.716;7.016;2023-11-18T05:07:44;26.73;;;16.77;;
71753;SDS011;59593;51.716;7.016;2023-11-18T05:10:10;25.17;;;15.77;;
71753;SDS011;59593;51.716;7.016;2023-11-18T05:12:37;25.03;;;16.03;;
71753;SDS011;59593;51.716;7.016;2023-11-18T05:15:03;26.67;;;16.33;;
71753;SDS011;59593;51.716;7.016;2023-11-18T05:17:31;30.33;;;18.50;;
71753;SDS011;59593;51.716;7.016;2023-11-18T05:19:57;27.30;;;16.83;;
71753;SDS011;59593;51.716;7.016;2023-11-18T05:22:22;30.67;;;18.20;;
71753;SDS011;59593;51.716;7.016;2023-11-18T05:24:48;24.40;;;16.40;;
71753;SDS011;59593;51.716;7.016;2023-11-18T05:27:14;28.27;;;16.37;;
71753;SDS011;59593;51.716;7.016;2023-11-18T05:29:40;28.13;;;16.90;;
71753;SDS011;59593;51.716;7.016;2023-11-18T05:32:10;28.37;;;17.47;;
71753;SDS011;59593;51.716;7.016;2023-11-18T05:34:35;30.43;;;17.60;;
71753;SDS011;59593;51.716;7.016;2023-11-18T05:37:01;26.07;;;16.83;;
71753;SDS011;59593;51.716;7.016;2023-11-18T05:39:27;30.60;;;18.13;;
71753;SDS011;59593;51.716;7.016;2023-11-18T05:41:56;29.93;;;17.73;;
71753;SDS011;59593;51.716;7.016;2023-11-18T05:44:22;26.07;;;16.60;;
71753;SDS011;59593;51.716;7.016;2023-11-18T05:46:55;26.30;;;16.33;;
71753;SDS011;59593;51.716;7.016;2023-11-18T05:49:22;27.83;;;16.77;;
71753;SDS011;59593;51.716;7.016;2023-11-18T05:51:49;27.70;;;16.83;;
71753;SDS011;59593;51.716;7.016;2023-11-18T05:54:15;25.17;;;16.60;;
71753;SDS011;59593;51.716;7.016;2023-11-18T05:56:40;25.20;;;16.33;;
71753;SDS011;59593;51.716;7.016;2023-11-18T05:59:06;26.53;;;15.63;;
71753;SDS011;59593;51.716;7.016;2023-11-18T06:01:33;24.67;;;15.87;;
71753;SDS011;59593;51.716;7.016;2023-11-18T06:03:59;24.40;;;16.50;;
71753;SDS011;59593;51.716;7.016;2023-11-18T06:06:26;28.83;;;17.57;;
71753;SDS011;59593;51.716;7.016;2023-11-18T06:08:51;25.10;;;15.80;;
71753;SDS011;59593;51.716;7.016;2023-11-18T06:11:18;24.70;;;16.33;;
71753;SDS011;59593;51.716;7.016;2023-11-18T06:13:48;25.07;;;16.53;;
71753;SDS011;59593;51.716;7.016;2023-11-18T06:18:50;27.33;;;16.40;;
71753;SDS011;59593;51.716;7.016;2023-11-18T06:21:20;26.17;;;16.67;;
71753;SDS011;59593;51.716;7.016;2023-11-18T06:23:50;23.03;;;15.33;;
71753;SDS011;59593;51.716;7.016;2023-11-18T06:26:16;25.33;;;16.13;;
71753;SDS011;59593;51.716;7.016;2023-11-18T06:28:43;28.00;;;17.13;;
71753;SDS011;59593;51.716;7.016;2023-11-18T06:31:10;24.53;;;15.90;;
71753;SDS011;59593;51.716;7.016;2023-11-18T06:33:44;24.53;;;16.23;;
71753;SDS011;59593;51.716;7.016;2023-11-18T06:38:39;23.63;;;16.00;;
71753;SDS011;59593;51.716;7.016;2023-11-18T06:41:05;28.00;;;17.20;;
71753;SDS011;59593;51.716;7.016;2023-11-18T06:43:37;25.90;;;16.03;;
71753;SDS011;59593;51.716;7.016;2023-11-18T06:48:48;25.50;;;17.80;;
71753;SDS011;59593;51.716;7.016;2023-11-18T06:51:15;27.37;;;17.23;;
71753;SDS011;59593;51.716;7.016;2023-11-18T06:53:41;30.67;;;19.00;;
71753;SDS011;59593;51.716;7.016;2023-11-18T06:56:08;33.33;;;18.67;;
71753;SDS011;59593;51.716;7.016;2023-11-18T06:58:36;26.27;;;17.17;;
71753;SDS011;59593;51.716;7.016;2023-11-18T07:01:03;29.83;;;18.90;;
71753;SDS011;59593;51.716;7.016;2023-11-18T07:03:30;29.43;;;18.17;;
71753;SDS011;59593;51.716;7.016;2023-11-18T07:05:56;30.40;;;17.57;;
71753;SDS011;59593;51.716;7.016;2023-11-18T07:08:22;30.93;;;18.47;;
71753;SDS011;59593;51.716;7.016;2023-11-18T07:10:49;31.17;;;18.63;;
71753;SDS011;59593;51.716;7.016;2023-11-18T07:13:14;28.37;;;18.63;;
71753;SDS011;59593;51.716;7.016;2023-11-18T07:15:41;30.67;;;18.47;;
71753;SDS011;59593;51.716;7.016;2023-11-18T07:18:07;29.90;;;18.27;;
71753;SDS011;59593;51.716;7.016;2023-11-18T07:20:33;27.00;;;17.87;;
71753;SDS011;59593;51.716;7.016;2023-11-18T07:22:59;27.90;;;17.43;;
71753;SDS011;59593;51.716;7.016;2023-11-18T07:25:26;31.40;;;18.63;;
71753;SDS011;59593;51.716;7.016;2023-11-18T07:27:52;26.53;;;16.87;;
71753;SDS011;59593;51.716;7.016;2023-11-18T07:30:18;30.10;;;18.23;;
71753;SDS011;59593;51.716;7.016;2023-11-18T07:32:45;26.57;;;17.20;;
71753;SDS011;59593;51.716;7.016;2023-11-18T07:35:10;29.10;;;18.23;;
71753;SDS011;59593;51.716;7.016;2023-11-18T07:37:36;30.90;;;17.73;;
71753;SDS011;59593;51.716;7.016;2023-11-18T07:40:03;31.13;;;17.70;;
71753;SDS011;59593;51.716;7.016;2023-11-18T07:42:33;27.27;;;17.50;;
71753;SDS011;59593;51.716;7.016;2023-11-18T07:45:01;28.17;;;18.67;;
71753;SDS011;59593;51.716;7.016;2023-11-18T07:47:29;28.27;;;19.43;;
71753;SDS011;59593;51.716;7.016;2023-11-18T07:49:57;27.57;;;18.77;;
71753;SDS011;59593;51.716;7.016;2023-11-18T07:52:24;29.90;;;17.73;;
71753;SDS011;59593;51.716;7.016;2023-11-18T07:54:52;25.30;;;17.87;;
71753;SDS011;59593;51.716;7.016;2023-11-18T07:57:18;27.40;;;18.77;;
71753;SDS011;59593;51.716;7.016;2023-11-18T07:59:43;28.00;;;18.93;;
71753;SDS011;59593;51.716;7.016;2023-11-18T08:02:09;29.30;;;18.30;;
71753;SDS011;59593;51.716;7.016;2023-11-18T08:04:35;29.23;;;18.73;;
71753;SDS011;59593;51.716;7.016;2023-11-18T08:07:02;29.10;;;18.70;;
71753;SDS011;59593;51.716;7.016;2023-11-18T08:09:29;30.50;;;17.70;;
71753;SDS011;59593;51.716;7.016;2023-11-18T08:11:57;27.53;;;18.40;;
71753;SDS011;59593;51.716;7.016;2023-11-18T08:14:23;27.40;;;18.60;;
71753;SDS011;59593;51.716;7.016;2023-11-18T08:16:49;30.03;;;19.07;;
71753;SDS011;59593;51.716;7.016;2023-11-18T08:19:16;25.47;;;18.00;;
71753;SDS011;59593;51.716;7.016;2023-11-18T08:21:42;27.97;;;18.50;;
71753;SDS011;59593;51.716;7.016;2023-11-18T08:24:08;30.13;;;18.13;;
71753;SDS011;59593;51.716;7.016;2023-11-18T08:26:37;31.93;;;19.20;;
71753;SDS011;59593;51.716;7.016;2023-11-18T08:29:02;29.80;;;18.30;;
71753;SDS011;59593;51.716;7.016;2023-11-18T08:31:28;29.00;;;18.37;;
71753;SDS011;59593;51.716;7.016;2023-11-18T08:33:53;33.73;;;21.70;;
71753;SDS011;59593;51.716;7.016;2023-11-18T08:36:19;30.57;;;20.53;;
71753;SDS011;59593;51.716;7.016;2023-11-18T08:38:47;30.93;;;19.60;;
71753;SDS011;59593;51.716;7.016;2023-11-18T08:41:15;31.00;;;20.43;;
71753;SDS011;59593;51.716;7.016;2023-11-18T08:43:41;35.10;;;22.90;;
71753;SDS011;59593;51.716;7.016;2023-11-18T08:46:06;29.97;;;20.40;;
71753;SDS011;59593;51.716;7.016;2023-11-18T08:48:32;31.57;;;19.53;;
71753;SDS011;59593;51.716;7.016;2023-11-18T08:51:02;31.53;;;20.43;;
71753;SDS011;59593;51.716;7.016;2023-11-18T08:53:30;28.53;;;19.33;;
71753;SDS011;59593;51.716;7.016;2023-11-18T08:56:02;29.50;;;20.33;;
71753;SDS011;59593;51.716;7.016;2023-11-18T08:58:32;31.50;;;20.60;;
71753;SDS011;59593;51.716;7.016;2023-11-18T09:00:59;28.67;;;19.40;;
71753;SDS011;59593;51.716;7.016;2023-11-18T09:03:38;30.30;;;20.00;;
71753;SDS011;59593;51.716;7.016;2023-11-18T09:06:08;30.03;;;19.67;;
71753;SDS011;59593;51.716;7.016;2023-11-18T09:08:50;31.23;;;19.57;;
71753;SDS011;59593;51.716;7.016;2023-11-18T09:11:20;31.40;;;20.67;;
71753;SDS011;59593;51.716;7.016;2023-11-18T09:13:47;34.30;;;20.57;;
71753;SDS011;59593;51.716;7.016;2023-11-18T09:16:18;32.20;;;19.50;;
71753;SDS011;59593;51.716;7.016;2023-11-18T09:18:47;31.70;;;20.63;;
71753;SDS011;59593;51.716;7.016;2023-11-18T09:21:14;29.27;;;18.57;;
71753;SDS011;59593;51.716;7.016;2023-11-18T09:23:40;27.80;;;19.33;;
71753;SDS011;59593;51.716;7.016;2023-11-18T09:26:07;36.73;;;19.97;;
71753;SDS011;59593;51.716;7.016;2023-11-18T09:28:35;31.93;;;18.90;;
71753;SDS011;59593;51.716;7.016;2023-11-18T09:31:02;31.03;;;19.23;;
71753;SDS011;59593;51.716;7.016;2023-11-18T09:33:36;30.73;;;19.20;;
71753;SDS011;59593;51.716;7.016;2023-11-18T09:36:05;29.57;;;19.23;;
71753;SDS011;59593;51.716;7.016;2023-11-18T09:38:36;31.67;;;19.53;;
71753;SDS011;59593;51.716;7.016;2023-11-18T09:41:05;31.03;;;19.03;;
71753;SDS011;59593;51.716;7.016;2023-11-18T09:43:35;28.47;;;18.17;;
71753;SDS011;59593;51.716;7.016;2023-11-18T09:46:14;27.17;;;17.23;;
71753;SDS011;59593;51.716;7.016;2023-11-18T09:48:41;27.10;;;17.73;;
71753;SDS011;59593;51.716;7.016;2023-11-18T09:51:37;27.70;;;17.97;;
71753;SDS011;59593;51.716;7.016;2023-11-18T09:59:32;26.30;;;17.43;;
71753;SDS011;59593;51.716;7.016;2023-11-18T10:02:00;25.07;;;16.23;;
71753;SDS011;59593;51.716;7.016;2023-11-18T10:04:29;25.07;;;16.30;;
71753;SDS011;59593;51.716;7.016;2023-11-18T10:06:56;25.07;;;15.97;;
71753;SDS011;59593;51.716;7.016;2023-11-18T10:09:25;26.57;;;16.70;;
71753;SDS011;59593;51.716;7.016;2023-11-18T10:12:02;23.90;;;16.17;;
71753;SDS011;59593;51.716;7.016;2023-11-18T10:14:32;22.63;;;15.43;;
71753;SDS011;59593;51.716;7.016;2023-11-18T10:17:04;25.83;;;16.10;;
71753;SDS011;59593;51.716;7.016;2023-11-18T10:20:06;21.83;;;14.90;;
71753;SDS011;59593;51.716;7.016;2023-11-18T10:22:26;25.93;;;15.30;;
71753;SDS011;59593;51.716;7.016;2023-11-18T10:24:52;24.63;;;14.30;;
71753;SDS011;59593;51.716;7.016;2023-11-18T10:27:28;22.30;;;15.37;;
71753;SDS011;59593;51.716;7.016;2023-11-18T10:29:58;28.40;;;16.17;;
71753;SDS011;59593;51.716;7.016;2023-11-18T10:32:27;27.33;;;19.10;;
71753;SDS011;59593;51.716;7.016;2023-11-18T10:34:56;25.67;;;17.17;;
71753;SDS011;59593;51.716;7.016;2023-11-18T10:37:22;18.90;;;13.87;;
71753;SDS011;59593;51.716;7.016;2023-11-18T10:39:49;19.10;;;12.53;;
71753;SDS011;59593;51.716;7.016;2023-11-18T10:42:18;18.57;;;12.30;;
71753;SDS011;59593;51.716;7.016;2023-11-18T10:44:58;19.23;;;13.17;;
71753;SDS011;59593;51.716;7.016;2023-11-18T10:47:28;21.60;;;13.63;;
71753;SDS011;59593;51.716;7.016;2023-11-18T10:49:57;23.00;;;13.97;;
71753;SDS011;59593;51.716;7.016;2023-11-18T10:52:26;18.43;;;12.97;;
71753;SDS011;59593;51.716;7.016;2023-11-18T10:54:56;17.57;;;12.70;;
71753;SDS011;59593;51.716;7.016;2023-11-18T10:57:21;16.83;;;12.10;;
71753;SDS011;59593;51.716;7.016;2023-11-18T10:59:58;18.37;;;11.73;;
71753;SDS011;59593;51.716;7.016;2023-11-18T11:02:32;18.93;;;11.17;;
71753;SDS011;59593;51.716;7.016;2023-11-18T11:05:03;18.13;;;12.03;;
71753;SDS011;59593;51.716;7.016;2023-11-18T11:07:29;14.37;;;10.93;;
71753;SDS011;59593;51.716;7.016;2023-11-18T11:09:57;17.23;;;11.10;;
71753;SDS011;59593;51.716;7.016;2023-11-18T11:12:25;19.60;;;11.17;;
71753;SDS011;59593;51.716;7.016;2023-11-18T11:15:01;15.53;;;10.63;;
71753;SDS011;59593;51.716;7.016;2023-11-18T11:17:37;16.50;;;11.57;;
71753;SDS011;59593;51.716;7.016;2023-11-18T11:22:46;16.70;;;10.57;;
71753;SDS011;59593;51.716;7.016;2023-11-18T11:28:10;14.47;;;10.20;;
71753;SDS011;59593;51.716;7.016;2023-11-18T11:30:45;14.50;;;10.10;;
71753;SDS011;59593;51.716;7.016;2023-11-18T11:33:21;15.17;;;10.00;;
71753;SDS011;59593;51.716;7.016;2023-11-18T11:36:02;15.70;;;9.50;;
71753;SDS011;59593;51.716;7.016;2023-11-18T11:38:30;13.13;;;8.87;;
71753;SDS011;59593;51.716;7.016;2023-11-18T11:40:57;15.27;;;9.57;;
71753;SDS011;59593;51.716;7.016;2023-11-18T11:43:27;16.23;;;9.80;;
71753;SDS011;59593;51.716;7.016;2023-11-18T11:45:54;13.70;;;8.67;;
71753;SDS011;59593;51.716;7.016;2023-11-18T11:48:23;14.73;;;9.03;;
71753;SDS011;59593;51.716;7.016;2023-11-18T11:53:26;13.13;;;8.30;;
71753;SDS011;59593;51.716;7.016;2023-11-18T11:56:04;14.13;;;9.47;;
71753;SDS011;59593;51.716;7.016;2023-11-18T11:58:38;14.70;;;8.63;;
71753;SDS011;59593;51.716;7.016;2023-11-18T12:03:57;14.67;;;9.30;;
71753;SDS011;59593;51.716;7.016;2023-11-18T12:06:25;14.87;;;8.93;;
71753;SDS011;59593;51.716;7.016;2023-11-18T12:08:53;11.87;;;8.33;;
71753;SDS011;59593;51.716;7.016;2023-11-18T12:11:19;14.10;;;9.10;;
71753;SDS011;59593;51.716;7.016;2023-11-18T12:14:03;19.27;;;9.80;;
71753;SDS011;59593;51.716;7.016;2023-11-18T12:17:06;13.20;;;8.90;;
71753;SDS011;59593;51.716;7.016;2023-11-18T12:19:37;13.27;;;8.70;;
71753;SDS011;59593;51.716;7.016;2023-11-18T12:22:12;14.40;;;8.90;;
71753;SDS011;59593;51.716;7.016;2023-11-18T12:30:05;12.90;;;9.27;;
71753;SDS011;59593;51.716;7.016;2023-11-18T12:32:57;16.03;;;9.70;;
71753;SDS011;59593;51.716;7.016;2023-11-18T12:35:26;16.43;;;8.80;;
71753;SDS011;59593;51.716;7.016;2023-11-18T12:40:55;13.53;;;8.30;;
71753;SDS011;59593;51.716;7.016;2023-11-18T12:48:56;11.77;;;6.90;;
71753;SDS011;59593;51.716;7.016;2023-11-18T12:51:25;13.57;;;8.23;;
71753;SDS011;59593;51.716;7.016;2023-11-18T12:53:51;14.23;;;8.03;;
71753;SDS011;59593;51.716;7.016;2023-11-18T12:56:19;13.00;;;7.57;;
71753;SDS011;59593;51.716;7.016;2023-11-18T12:58:48;12.07;;;7.73;;
71753;SDS011;59593;51.716;7.016;2023-11-18T13:01:14;15.20;;;8.90;;
71753;SDS011;59593;51.716;7.016;2023-11-18T13:03:41;14.03;;;8.33;;
71753;SDS011;59593;51.716;7.016;2023-11-18T13:06:10;17.17;;;8.67;;
71753;SDS011;59593;51.716;7.016;2023-11-18T13:08:40;18.20;;;7.70;;
71753;SDS011;59593;51.716;7.016;2023-11-18T13:11:06;14.33;;;7.10;;
71753;SDS011;59593;51.716;7.016;2023-11-18T13:13:37;12.13;;;7.40;;
71753;SDS011;59593;51.716;7.016;2023-11-18T13:16:05;11.43;;;7.90;;
71753;SDS011;59593;51.716;7.016;2023-11-18T13:18:43;13.90;;;7.87;;
71753;SDS011;59593;51.716;7.016;2023-11-18T13:21:13;11.13;;;7.23;;
71753;SDS011;59593;51.716;7.016;2023-11-18T13:23:41;10.97;;;6.90;;
71753;SDS011;59593;51.716;7.016;2023-11-18T13:26:07;10.00;;;6.87;;
71753;SDS011;59593;51.716;7.016;2023-11-18T13:28:34;10.10;;;6.70;;
71753;SDS011;59593;51.716;7.016;2023-11-18T13:31:00;12.97;;;7.60;;
71753;SDS011;59593;51.716;7.016;2023-11-18T13:33:26;14.40;;;8.17;;
71753;SDS011;59593;51.716;7.016;2023-11-18T13:35:52;13.30;;;7.67;;
71753;SDS011;59593;51.716;7.016;2023-11-18T13:38:18;10.07;;;7.03;;
71753;SDS011;59593;51.716;7.016;2023-11-18T13:40:44;12.53;;;7.53;;
71753;SDS011;59593;51.716;7.016;2023-11-18T13:43:13;13.27;;;7.80;;
71753;SDS011;59593;51.716;7.016;2023-11-18T13:45:40;12.07;;;7.17;;
71753;SDS011;59593;51.716;7.016;2023-11-18T13:48:07;13.17;;;7.23;;
71753;SDS011;59593;51.716;7.016;2023-11-18T13:50:36;9.70;;;6.70;;
71753;SDS011;59593;51.716;7.016;2023-11-18T13:53:03;10.97;;;6.43;;
71753;SDS011;59593;51.716;7.016;2023-11-18T13:55:30;8.57;;;6.50;;
71753;SDS011;59593;51.716;7.016;2023-11-18T13:57:57;8.80;;;6.20;;
71753;SDS011;59593;51.716;7.016;2023-11-18T14:00:26;12.47;;;6.17;;
71753;SDS011;59593;51.716;7.016;2023-11-18T14:02:55;9.83;;;6.37;;
71753;SDS011;59593;51.716;7.016;2023-11-18T14:05:21;12.30;;;6.83;;
71753;SDS011;59593;51.716;7.016;2023-11-18T14:07:49;10.87;;;6.37;;
71753;SDS011;59593;51.716;7.016;2023-11-18T14:10:24;11.40;;;6.37;;
71753;SDS011;59593;51.716;7.016;2023-11-18T14:13:03;12.37;;;5.57;;
71753;SDS011;59593;51.716;7.016;2023-11-18T14:15:37;10.63;;;6.47;;
71753;SDS011;59593;51.716;7.016;2023-11-18T14:18:03;7.93;;;5.27;;
71753;SDS011;59593;51.716;7.016;2023-11-18T14:20:32;10.23;;;5.80;;
71753;SDS011;59593;51.716;7.016;2023-11-18T14:23:00;11.47;;;6.90;;
71753;SDS011;59593;51.716;7.016;2023-11-18T14:25:32;9.40;;;6.10;;
71753;SDS011;59593;51.716;7.016;2023-11-18T14:27:58;8.33;;;5.73;;
71753;SDS011;59593;51.716;7.016;2023-11-18T14:30:24;7.40;;;5.53;;
71753;SDS011;59593;51.716;7.016;2023-11-18T14:32:53;10.73;;;5.67;;
71753;SDS011;59593;51.716;7.016;2023-11-18T14:35:19;10.33;;;5.60;;
71753;SDS011;59593;51.716;7.016;2023-11-18T14:37:46;10.87;;;6.53;;
71753;SDS011;59593;51.716;7.016;2023-11-18T14:40:12;10.10;;;5.97;;
71753;SDS011;59593;51.716;7.016;2023-11-18T14:42:42;9.03;;;5.97;;
71753;SDS011;59593;51.716;7.016;2023-11-18T14:45:08;12.13;;;6.00;;
71753;SDS011;59593;51.716;7.016;2023-11-18T14:47:35;10.67;;;6.37;;
71753;SDS011;59593;51.716;7.016;2023-11-18T14:50:01;11.80;;;6.00;;
71753;SDS011;59593;51.716;7.016;2023-11-18T14:52:28;10.20;;;5.83;;
71753;SDS011;59593;51.716;7.016;2023-11-18T14:54:53;7.73;;;6.23;;
71753;SDS011;59593;51.716;7.016;2023-11-18T14:57:19;10.60;;;6.13;;
71753;SDS011;59593;51.716;7.016;2023-11-18T14:59:45;10.60;;;6.20;;
71753;SDS011;59593;51.716;7.016;2023-11-18T15:02:10;12.00;;;6.63;;
71753;SDS011;59593;51.716;7.016;2023-11-18T15:04:36;9.70;;;6.57;;
71753;SDS011;59593;51.716;7.016;2023-11-18T15:07:02;9.77;;;6.23;;